sensor_id;sensor_type;location;lat;lon;timestamp;P1;durP1;ratioP1;P2;durP2;ratioP2
351;SDS011;164;50.784;6.496;2023-05-14T00:00:11;11.57;;;10.98;;
351;SDS011;164;50.784;6.496;2023-05-14T00:02:38;11.32;;;10.73;;
351;SDS011;164;50.784;6.496;2023-05-14T00:05:06;11.13;;;10.52;;
351;SDS011;164;50.784;6.496;2023-05-14T00:07:34;10.88;;;9.93;;
351;SDS011;164;50.784;6.496;2023-05-14T00:10:02;13.93;;;10.75;;
351;SDS011;164;50.784;6.496;2023-05-14T00:12:30;9.95;;;9.45;;
351;SDS011;164;50.784;6.496;2023-05-14T00:14:57;11.50;;;10.90;;
351;SDS011;164;50.784;6.496;2023-05-14T00:17:25;12.23;;;11.63;;
351;SDS011;164;50.784;6.496;2023-05-14T00:19:52;12.15;;;10.98;;
351;SDS011;164;50.784;6.496;2023-05-14T00:22:19;11.60;;;11.00;;
351;SDS011;164;50.784;6.496;2023-05-14T00:24:47;11.90;;;10.60;;
351;SDS011;164;50.784;6.496;2023-05-14T00:27:16;11.30;;;10.70;;
351;SDS011;164;50.784;6.496;2023-05-14T00:29:43;10.57;;;10.00;;
351;SDS011;164;50.784;6.496;2023-05-14T00:32:10;12.20;;;11.60;;
351;SDS011;164;50.784;6.496;2023-05-14T00:34:37;11.77;;;11.18;;
351;SDS011;164;50.784;6.496;2023-05-14T00:37:05;14.95;;;11.13;;
351;SDS011;164;50.784;6.496;2023-05-14T00:39:32;12.60;;;11.95;;
351;SDS011;164;50.784;6.496;2023-05-14T00:41:59;10.77;;;9.57;;
351;SDS011;164;50.784;6.496;2023-05-14T00:44:28;10.00;;;9.50;;
351;SDS011;164;50.784;6.496;2023-05-14T00:46:55;10.65;;;10.05;;
351;SDS011;164;50.784;6.496;2023-05-14T00:49:23;11.20;;;10.60;;
351;SDS011;164;50.784;6.496;2023-05-14T00:51:50;11.52;;;10.93;;
351;SDS011;164;50.784;6.496;2023-05-14T00:54:18;12.85;;;12.15;;
351;SDS011;164;50.784;6.496;2023-05-14T00:56:46;12.23;;;11.63;;
351;SDS011;164;50.784;6.496;2023-05-14T00:59:14;14.85;;;10.52;;
351;SDS011;164;50.784;6.496;2023-05-14T01:01:42;14.18;;;11.55;;
351;SDS011;164;50.784;6.496;2023-05-14T01:04:09;12.85;;;12.15;;
351;SDS011;164;50.784;6.496;2023-05-14T01:06:39;14.88;;;10.30;;
351;SDS011;164;50.784;6.496;2023-05-14T01:09:12;13.98;;;11.45;;
351;SDS011;164;50.784;6.496;2023-05-14T01:11:44;11.38;;;10.77;;
351;SDS011;164;50.784;6.496;2023-05-14T01:14:15;12.65;;;11.98;;
351;SDS011;164;50.784;6.496;2023-05-14T01:16:44;12.32;;;11.48;;
351;SDS011;164;50.784;6.496;2023-05-14T01:19:16;11.90;;;11.30;;
351;SDS011;164;50.784;6.496;2023-05-14T01:21:48;12.20;;;10.73;;
351;SDS011;164;50.784;6.496;2023-05-14T01:24:16;10.23;;;9.73;;
351;SDS011;164;50.784;6.496;2023-05-14T01:26:43;12.15;;;11.55;;
351;SDS011;164;50.784;6.496;2023-05-14T01:29:13;11.63;;;11.02;;
351;SDS011;164;50.784;6.496;2023-05-14T01:31:42;11.95;;;11.35;;
351;SDS011;164;50.784;6.496;2023-05-14T01:34:09;11.32;;;10.63;;
351;SDS011;164;50.784;6.496;2023-05-14T01:36:37;12.88;;;12.18;;
351;SDS011;164;50.784;6.496;2023-05-14T01:39:06;11.13;;;10.52;;
351;SDS011;164;50.784;6.496;2023-05-14T01:41:34;12.25;;;11.65;;
351;SDS011;164;50.784;6.496;2023-05-14T01:44:01;11.75;;;11.15;;
351;SDS011;164;50.784;6.496;2023-05-14T01:46:30;15.45;;;12.27;;
351;SDS011;164;50.784;6.496;2023-05-14T01:48:57;11.70;;;11.10;;
351;SDS011;164;50.784;6.496;2023-05-14T01:51:25;12.90;;;12.23;;
351;SDS011;164;50.784;6.496;2023-05-14T01:53:52;12.73;;;12.02;;
351;SDS011;164;50.784;6.496;2023-05-14T01:56:21;12.50;;;11.85;;
351;SDS011;164;50.784;6.496;2023-05-14T01:58:49;13.25;;;12.55;;
351;SDS011;164;50.784;6.496;2023-05-14T02:01:17;11.25;;;10.65;;
351;SDS011;164;50.784;6.496;2023-05-14T02:03:44;12.45;;;11.85;;
351;SDS011;164;50.784;6.496;2023-05-14T02:06:11;11.43;;;10.82;;
351;SDS011;164;50.784;6.496;2023-05-14T02:08:38;12.68;;;12.02;;
351;SDS011;164;50.784;6.496;2023-05-14T02:11:06;12.65;;;11.98;;
351;SDS011;164;50.784;6.496;2023-05-14T02:13:35;12.77;;;12.07;;
351;SDS011;164;50.784;6.496;2023-05-14T02:16:02;16.70;;;12.90;;
351;SDS011;164;50.784;6.496;2023-05-14T02:18:29;12.40;;;11.80;;
351;SDS011;164;50.784;6.496;2023-05-14T02:20:57;12.27;;;11.68;;
351;SDS011;164;50.784;6.496;2023-05-14T02:23:24;12.25;;;11.65;;
351;SDS011;164;50.784;6.496;2023-05-14T02:25:51;11.82;;;11.15;;
351;SDS011;164;50.784;6.496;2023-05-14T02:28:19;12.90;;;12.20;;
351;SDS011;164;50.784;6.496;2023-05-14T02:30:48;12.82;;;11.88;;
351;SDS011;164;50.784;6.496;2023-05-14T02:33:15;12.40;;;11.80;;
351;SDS011;164;50.784;6.496;2023-05-14T02:35:42;11.80;;;11.20;;
351;SDS011;164;50.784;6.496;2023-05-14T02:38:10;12.55;;;11.93;;
351;SDS011;164;50.784;6.496;2023-05-14T02:40:37;13.85;;;13.15;;
351;SDS011;164;50.784;6.496;2023-05-14T02:43:04;12.95;;;12.27;;
351;SDS011;164;50.784;6.496;2023-05-14T02:45:31;12.80;;;12.10;;
351;SDS011;164;50.784;6.496;2023-05-14T02:48:00;13.43;;;12.73;;
351;SDS011;164;50.784;6.496;2023-05-14T02:50:27;12.88;;;12.18;;
351;SDS011;164;50.784;6.496;2023-05-14T02:52:55;14.05;;;13.35;;
351;SDS011;164;50.784;6.496;2023-05-14T02:55:22;14.20;;;12.88;;
351;SDS011;164;50.784;6.496;2023-05-14T02:57:50;13.18;;;12.48;;
351;SDS011;164;50.784;6.496;2023-05-14T03:00:18;13.95;;;13.25;;
351;SDS011;164;50.784;6.496;2023-05-14T03:02:45;13.63;;;11.73;;
351;SDS011;164;50.784;6.496;2023-05-14T03:05:14;12.07;;;11.48;;
351;SDS011;164;50.784;6.496;2023-05-14T03:07:41;14.25;;;12.65;;
351;SDS011;164;50.784;6.496;2023-05-14T03:10:08;14.45;;;13.75;;
351;SDS011;164;50.784;6.496;2023-05-14T03:12:36;13.43;;;12.73;;
351;SDS011;164;50.784;6.496;2023-05-14T03:15:03;13.50;;;12.80;;
351;SDS011;164;50.784;6.496;2023-05-14T03:17:30;16.35;;;13.15;;
351;SDS011;164;50.784;6.496;2023-05-14T03:19:58;14.38;;;13.68;;
351;SDS011;164;50.784;6.496;2023-05-14T03:22:26;13.38;;;12.68;;
351;SDS011;164;50.784;6.496;2023-05-14T03:24:54;14.25;;;13.55;;
351;SDS011;164;50.784;6.496;2023-05-14T03:27:22;14.38;;;13.68;;
351;SDS011;164;50.784;6.496;2023-05-14T03:29:49;14.98;;;14.18;;
351;SDS011;164;50.784;6.496;2023-05-14T03:32:16;13.57;;;12.88;;
351;SDS011;164;50.784;6.496;2023-05-14T03:34:43;14.25;;;13.55;;
351;SDS011;164;50.784;6.496;2023-05-14T03:37:11;14.60;;;13.90;;
351;SDS011;164;50.784;6.496;2023-05-14T03:39:40;15.50;;;14.70;;
351;SDS011;164;50.784;6.496;2023-05-14T03:42:07;15.02;;;14.23;;
351;SDS011;164;50.784;6.496;2023-05-14T03:44:34;13.93;;;13.23;;
351;SDS011;164;50.784;6.496;2023-05-14T03:47:01;13.30;;;12.60;;
351;SDS011;164;50.784;6.496;2023-05-14T03:49:29;14.05;;;13.35;;
351;SDS011;164;50.784;6.496;2023-05-14T03:51:56;14.70;;;13.95;;
351;SDS011;164;50.784;6.496;2023-05-14T03:54:23;12.70;;;12.00;;
351;SDS011;164;50.784;6.496;2023-05-14T03:56:52;14.98;;;14.18;;
351;SDS011;164;50.784;6.496;2023-05-14T03:59:19;15.18;;;14.38;;
351;SDS011;164;50.784;6.496;2023-05-14T04:01:46;12.48;;;11.88;;
351;SDS011;164;50.784;6.496;2023-05-14T04:04:13;13.70;;;13.00;;
351;SDS011;164;50.784;6.496;2023-05-14T04:06:41;15.02;;;14.23;;
351;SDS011;164;50.784;6.496;2023-05-14T04:09:08;16.92;;;16.05;;
351;SDS011;164;50.784;6.496;2023-05-14T04:11:36;13.00;;;12.30;;
351;SDS011;164;50.784;6.496;2023-05-14T04:14:05;14.57;;;13.85;;
351;SDS011;164;50.784;6.496;2023-05-14T04:16:32;13.85;;;13.15;;
351;SDS011;164;50.784;6.496;2023-05-14T04:18:59;13.57;;;12.88;;
351;SDS011;164;50.784;6.496;2023-05-14T04:21:28;15.45;;;14.65;;
351;SDS011;164;50.784;6.496;2023-05-14T04:23:55;13.98;;;13.27;;
351;SDS011;164;50.784;6.496;2023-05-14T04:26:22;14.77;;;14.00;;
351;SDS011;164;50.784;6.496;2023-05-14T04:28:50;18.58;;;15.40;;
351;SDS011;164;50.784;6.496;2023-05-14T04:31:18;15.90;;;15.10;;
351;SDS011;164;50.784;6.496;2023-05-14T04:33:45;15.02;;;14.23;;
351;SDS011;164;50.784;6.496;2023-05-14T04:36:13;13.90;;;13.20;;
351;SDS011;164;50.784;6.496;2023-05-14T04:38:40;15.52;;;14.73;;
351;SDS011;164;50.784;6.496;2023-05-14T04:41:08;15.40;;;14.60;;
351;SDS011;164;50.784;6.496;2023-05-14T04:43:35;15.93;;;14.75;;
351;SDS011;164;50.784;6.496;2023-05-14T04:46:02;14.48;;;13.77;;
351;SDS011;164;50.784;6.496;2023-05-14T04:48:31;15.50;;;14.70;;
351;SDS011;164;50.784;6.496;2023-05-14T04:50:58;15.07;;;14.27;;
351;SDS011;164;50.784;6.496;2023-05-14T04:53:26;15.38;;;14.57;;
351;SDS011;164;50.784;6.496;2023-05-14T04:55:53;15.45;;;14.65;;
351;SDS011;164;50.784;6.496;2023-05-14T04:58:20;14.93;;;14.13;;
351;SDS011;164;50.784;6.496;2023-05-14T05:00:48;14.60;;;13.90;;
351;SDS011;164;50.784;6.496;2023-05-14T05:03:15;15.43;;;14.63;;
351;SDS011;164;50.784;6.496;2023-05-14T05:05:44;14.65;;;13.90;;
351;SDS011;164;50.784;6.496;2023-05-14T05:08:11;16.23;;;15.43;;
351;SDS011;164;50.784;6.496;2023-05-14T05:10:38;14.88;;;14.07;;
351;SDS011;164;50.784;6.496;2023-05-14T05:13:05;14.13;;;13.43;;
351;SDS011;164;50.784;6.496;2023-05-14T05:15:33;14.75;;;14.00;;
351;SDS011;164;50.784;6.496;2023-05-14T05:18:00;16.25;;;15.45;;
351;SDS011;164;50.784;6.496;2023-05-14T05:20:27;14.38;;;13.63;;
351;SDS011;164;50.784;6.496;2023-05-14T05:22:56;13.77;;;13.07;;
351;SDS011;164;50.784;6.496;2023-05-14T05:25:23;14.95;;;14.15;;
351;SDS011;164;50.784;6.496;2023-05-14T05:27:51;14.45;;;13.75;;
351;SDS011;164;50.784;6.496;2023-05-14T05:30:18;14.32;;;13.63;;
351;SDS011;164;50.784;6.496;2023-05-14T05:32:45;16.23;;;15.43;;
351;SDS011;164;50.784;6.496;2023-05-14T05:35:12;15.23;;;14.43;;
351;SDS011;164;50.784;6.496;2023-05-14T05:37:41;14.60;;;13.90;;
351;SDS011;164;50.784;6.496;2023-05-14T05:40:10;14.38;;;13.68;;
351;SDS011;164;50.784;6.496;2023-05-14T05:42:39;15.38;;;14.50;;
351;SDS011;164;50.784;6.496;2023-05-14T05:45:07;15.15;;;14.35;;
351;SDS011;164;50.784;6.496;2023-05-14T05:47:34;14.07;;;13.38;;
351;SDS011;164;50.784;6.496;2023-05-14T05:50:01;14.90;;;14.10;;
351;SDS011;164;50.784;6.496;2023-05-14T05:52:29;15.27;;;14.48;;
351;SDS011;164;50.784;6.496;2023-05-14T05:54:56;15.55;;;14.75;;
351;SDS011;164;50.784;6.496;2023-05-14T05:57:25;15.90;;;15.10;;
351;SDS011;164;50.784;6.496;2023-05-14T05:59:52;14.80;;;14.00;;
351;SDS011;164;50.784;6.496;2023-05-14T06:02:19;13.77;;;13.07;;
351;SDS011;164;50.784;6.496;2023-05-14T06:04:46;13.40;;;12.70;;
351;SDS011;164;50.784;6.496;2023-05-14T06:07:13;13.32;;;12.63;;
351;SDS011;164;50.784;6.496;2023-05-14T06:09:41;13.85;;;13.15;;
351;SDS011;164;50.784;6.496;2023-05-14T06:12:08;13.07;;;12.38;;
351;SDS011;164;50.784;6.496;2023-05-14T06:14:37;13.55;;;12.85;;
351;SDS011;164;50.784;6.496;2023-05-14T06:17:04;14.98;;;14.18;;
351;SDS011;164;50.784;6.496;2023-05-14T06:19:31;17.38;;;16.48;;
351;SDS011;164;50.784;6.496;2023-05-14T06:21:59;14.75;;;13.85;;
351;SDS011;164;50.784;6.496;2023-05-14T06:24:26;18.02;;;17.13;;
351;SDS011;164;50.784;6.496;2023-05-14T06:26:54;18.58;;;17.67;;
351;SDS011;164;50.784;6.496;2023-05-14T06:29:21;16.60;;;15.80;;
351;SDS011;164;50.784;6.496;2023-05-14T06:31:50;17.02;;;16.13;;
351;SDS011;164;50.784;6.496;2023-05-14T06:34:17;18.10;;;17.20;;
351;SDS011;164;50.784;6.496;2023-05-14T06:36:45;18.17;;;17.27;;
351;SDS011;164;50.784;6.496;2023-05-14T06:39:12;18.25;;;17.35;;
351;SDS011;164;50.784;6.496;2023-05-14T06:41:39;21.70;;;20.60;;
351;SDS011;164;50.784;6.496;2023-05-14T06:44:06;19.83;;;18.83;;
351;SDS011;164;50.784;6.496;2023-05-14T06:46:34;20.05;;;19.05;;
351;SDS011;164;50.784;6.496;2023-05-14T06:49:03;20.38;;;19.38;;
351;SDS011;164;50.784;6.496;2023-05-14T06:51:30;19.02;;;18.02;;
351;SDS011;164;50.784;6.496;2023-05-14T06:53:57;18.40;;;17.50;;
351;SDS011;164;50.784;6.496;2023-05-14T06:56:25;19.52;;;18.52;;
351;SDS011;164;50.784;6.496;2023-05-14T06:58:52;19.35;;;18.35;;
351;SDS011;164;50.784;6.496;2023-05-14T07:01:19;20.33;;;19.33;;
351;SDS011;164;50.784;6.496;2023-05-14T07:03:46;19.15;;;18.15;;
351;SDS011;164;50.784;6.496;2023-05-14T07:06:15;19.45;;;18.45;;
351;SDS011;164;50.784;6.496;2023-05-14T07:08:43;20.50;;;19.50;;
351;SDS011;164;50.784;6.496;2023-05-14T07:11:11;20.33;;;19.33;;
351;SDS011;164;50.784;6.496;2023-05-14T07:13:38;22.75;;;21.65;;
351;SDS011;164;50.784;6.496;2023-05-14T07:16:06;22.30;;;21.20;;
351;SDS011;164;50.784;6.496;2023-05-14T07:18:34;20.80;;;19.75;;
351;SDS011;164;50.784;6.496;2023-05-14T07:21:03;20.90;;;19.90;;
351;SDS011;164;50.784;6.496;2023-05-14T07:23:32;21.60;;;20.52;;
351;SDS011;164;50.784;6.496;2023-05-14T07:26:01;21.50;;;20.40;;
351;SDS011;164;50.784;6.496;2023-05-14T07:28:28;20.30;;;19.30;;
351;SDS011;164;50.784;6.496;2023-05-14T07:30:55;23.42;;;22.23;;
351;SDS011;164;50.784;6.496;2023-05-14T07:33:23;22.38;;;21.27;;
351;SDS011;164;50.784;6.496;2023-05-14T07:35:53;20.73;;;19.73;;
351;SDS011;164;50.784;6.496;2023-05-14T07:38:21;20.42;;;19.42;;
351;SDS011;164;50.784;6.496;2023-05-14T07:40:49;20.45;;;19.45;;
351;SDS011;164;50.784;6.496;2023-05-14T07:43:16;19.92;;;18.92;;
351;SDS011;164;50.784;6.496;2023-05-14T07:45:44;20.75;;;19.75;;
351;SDS011;164;50.784;6.496;2023-05-14T07:48:11;21.83;;;20.73;;
351;SDS011;164;50.784;6.496;2023-05-14T07:50:38;20.40;;;19.40;;
351;SDS011;164;50.784;6.496;2023-05-14T07:53:06;19.30;;;18.30;;
351;SDS011;164;50.784;6.496;2023-05-14T07:55:33;19.85;;;18.85;;
351;SDS011;164;50.784;6.496;2023-05-14T07:58:01;19.73;;;18.73;;
351;SDS011;164;50.784;6.496;2023-05-14T08:00:28;19.27;;;18.27;;
351;SDS011;164;50.784;6.496;2023-05-14T08:02:56;17.63;;;16.73;;
351;SDS011;164;50.784;6.496;2023-05-14T08:05:23;19.55;;;18.55;;
351;SDS011;164;50.784;6.496;2023-05-14T08:07:50;17.63;;;16.73;;
351;SDS011;164;50.784;6.496;2023-05-14T08:10:18;18.20;;;17.30;;
351;SDS011;164;50.784;6.496;2023-05-14T08:12:45;16.10;;;15.30;;
351;SDS011;164;50.784;6.496;2023-05-14T08:15:13;15.23;;;14.43;;
351;SDS011;164;50.784;6.496;2023-05-14T08:17:40;15.10;;;14.30;;
351;SDS011;164;50.784;6.496;2023-05-14T08:20:09;15.55;;;14.73;;
351;SDS011;164;50.784;6.496;2023-05-14T08:22:36;13.90;;;13.20;;
351;SDS011;164;50.784;6.496;2023-05-14T08:25:04;13.35;;;12.65;;
351;SDS011;164;50.784;6.496;2023-05-14T08:27:32;13.88;;;13.18;;
351;SDS011;164;50.784;6.496;2023-05-14T08:29:59;12.80;;;12.10;;
351;SDS011;164;50.784;6.496;2023-05-14T08:32:28;15.18;;;13.23;;
351;SDS011;164;50.784;6.496;2023-05-14T08:34:55;12.82;;;12.13;;
351;SDS011;164;50.784;6.496;2023-05-14T08:37:22;12.40;;;11.80;;
351;SDS011;164;50.784;6.496;2023-05-14T08:39:50;11.70;;;11.10;;
351;SDS011;164;50.784;6.496;2023-05-14T08:42:18;11.02;;;10.43;;
351;SDS011;164;50.784;6.496;2023-05-14T08:44:47;10.63;;;10.02;;
351;SDS011;164;50.784;6.496;2023-05-14T08:47:15;10.65;;;10.05;;
351;SDS011;164;50.784;6.496;2023-05-14T08:49:45;10.15;;;9.65;;
351;SDS011;164;50.784;6.496;2023-05-14T08:52:13;13.50;;;12.80;;
351;SDS011;164;50.784;6.496;2023-05-14T08:54:41;13.98;;;13.27;;
351;SDS011;164;50.784;6.496;2023-05-14T08:57:08;14.05;;;13.35;;
351;SDS011;164;50.784;6.496;2023-05-14T08:59:36;14.43;;;13.70;;
351;SDS011;164;50.784;6.496;2023-05-14T09:02:03;14.25;;;13.55;;
351;SDS011;164;50.784;6.496;2023-05-14T09:04:32;15.32;;;14.52;;
351;SDS011;164;50.784;6.496;2023-05-14T09:07:00;13.80;;;13.10;;
351;SDS011;164;50.784;6.496;2023-05-14T09:09:28;14.88;;;14.10;;
351;SDS011;164;50.784;6.496;2023-05-14T09:11:55;16.55;;;15.73;;
351;SDS011;164;50.784;6.496;2023-05-14T09:14:23;16.45;;;15.65;;
351;SDS011;164;50.784;6.496;2023-05-14T09:16:50;17.75;;;16.85;;
351;SDS011;164;50.784;6.496;2023-05-14T09:19:18;17.67;;;16.77;;
351;SDS011;164;50.784;6.496;2023-05-14T09:21:47;14.27;;;13.57;;
351;SDS011;164;50.784;6.496;2023-05-14T09:24:20;16.10;;;15.30;;
351;SDS011;164;50.784;6.496;2023-05-14T09:26:48;18.77;;;17.88;;
351;SDS011;164;50.784;6.496;2023-05-14T09:29:16;20.02;;;19.02;;
351;SDS011;164;50.784;6.496;2023-05-14T09:31:43;19.63;;;18.63;;
351;SDS011;164;50.784;6.496;2023-05-14T09:34:14;20.88;;;19.88;;
351;SDS011;164;50.784;6.496;2023-05-14T09:36:49;22.45;;;21.25;;
351;SDS011;164;50.784;6.496;2023-05-14T09:39:16;21.40;;;20.33;;
351;SDS011;164;50.784;6.496;2023-05-14T09:41:45;22.45;;;20.63;;
351;SDS011;164;50.784;6.496;2023-05-14T09:44:12;22.35;;;21.25;;
351;SDS011;164;50.784;6.496;2023-05-14T09:46:39;21.35;;;20.25;;
351;SDS011;164;50.784;6.496;2023-05-14T09:49:07;23.77;;;22.58;;
351;SDS011;164;50.784;6.496;2023-05-14T09:51:34;23.30;;;22.13;;
351;SDS011;164;50.784;6.496;2023-05-14T09:54:02;22.75;;;21.65;;
351;SDS011;164;50.784;6.496;2023-05-14T09:56:31;22.50;;;21.40;;
351;SDS011;164;50.784;6.496;2023-05-14T09:58:59;22.05;;;20.95;;
351;SDS011;164;50.784;6.496;2023-05-14T10:01:27;23.63;;;22.42;;
351;SDS011;164;50.784;6.496;2023-05-14T10:03:55;22.23;;;21.13;;
351;SDS011;164;50.784;6.496;2023-05-14T10:06:23;24.55;;;23.35;;
351;SDS011;164;50.784;6.496;2023-05-14T10:08:52;22.77;;;21.35;;
351;SDS011;164;50.784;6.496;2023-05-14T10:11:21;23.38;;;22.20;;
351;SDS011;164;50.784;6.496;2023-05-14T10:13:52;22.55;;;21.45;;
351;SDS011;164;50.784;6.496;2023-05-14T10:16:24;25.00;;;23.80;;
351;SDS011;164;50.784;6.496;2023-05-14T10:18:55;24.05;;;22.85;;
351;SDS011;164;50.784;6.496;2023-05-14T10:21:26;22.45;;;21.35;;
351;SDS011;164;50.784;6.496;2023-05-14T10:24:09;24.67;;;23.48;;
351;SDS011;164;50.784;6.496;2023-05-14T10:26:38;24.08;;;22.88;;
351;SDS011;164;50.784;6.496;2023-05-14T10:29:20;23.70;;;22.50;;
351;SDS011;164;50.784;6.496;2023-05-14T10:31:59;24.60;;;23.40;;
351;SDS011;164;50.784;6.496;2023-05-14T10:34:29;27.25;;;25.92;;
351;SDS011;164;50.784;6.496;2023-05-14T10:36:58;28.90;;;27.50;;
351;SDS011;164;50.784;6.496;2023-05-14T10:39:38;31.95;;;30.35;;
351;SDS011;164;50.784;6.496;2023-05-14T10:42:05;33.30;;;31.70;;
351;SDS011;164;50.784;6.496;2023-05-14T10:44:34;32.03;;;30.42;;
351;SDS011;164;50.784;6.496;2023-05-14T10:47:17;30.40;;;28.90;;
351;SDS011;164;50.784;6.496;2023-05-14T10:49:44;31.23;;;29.73;;
351;SDS011;164;50.784;6.496;2023-05-14T10:52:17;35.17;;;33.47;;
351;SDS011;164;50.784;6.496;2023-05-14T10:54:54;32.90;;;31.30;;
351;SDS011;164;50.784;6.496;2023-05-14T10:57:22;34.22;;;32.53;;
351;SDS011;164;50.784;6.496;2023-05-14T10:59:51;35.25;;;33.55;;
351;SDS011;164;50.784;6.496;2023-05-14T11:02:21;31.73;;;30.13;;
351;SDS011;164;50.784;6.496;2023-05-14T11:04:52;31.33;;;29.83;;
351;SDS011;164;50.784;6.496;2023-05-14T11:07:35;31.40;;;29.88;;
351;SDS011;164;50.784;6.496;2023-05-14T11:10:03;29.73;;;28.23;;
351;SDS011;164;50.784;6.496;2023-05-14T11:12:31;30.95;;;29.45;;
351;SDS011;164;50.784;6.496;2023-05-14T11:15:13;32.47;;;30.88;;
351;SDS011;164;50.784;6.496;2023-05-14T11:17:42;31.80;;;30.20;;
351;SDS011;164;50.784;6.496;2023-05-14T11:20:10;32.40;;;30.80;;
351;SDS011;164;50.784;6.496;2023-05-14T11:22:38;29.83;;;28.33;;
351;SDS011;164;50.784;6.496;2023-05-14T11:25:06;27.30;;;25.95;;
351;SDS011;164;50.784;6.496;2023-05-14T11:27:35;28.70;;;27.30;;
351;SDS011;164;50.784;6.496;2023-05-14T11:30:16;35.45;;;33.75;;
351;SDS011;164;50.784;6.496;2023-05-14T11:38:24;27.38;;;26.02;;
351;SDS011;164;50.784;6.496;2023-05-14T11:41:05;30.77;;;29.27;;
351;SDS011;164;50.784;6.496;2023-05-14T11:43:32;25.48;;;24.17;;
351;SDS011;164;50.784;6.496;2023-05-14T11:46:16;24.15;;;22.95;;
351;SDS011;164;50.784;6.496;2023-05-14T11:48:43;23.83;;;22.63;;
351;SDS011;164;50.784;6.496;2023-05-14T11:51:24;24.83;;;23.63;;
351;SDS011;164;50.784;6.496;2023-05-14T11:53:53;22.40;;;21.30;;
351;SDS011;164;50.784;6.496;2023-05-14T11:56:20;22.10;;;20.83;;
351;SDS011;164;50.784;6.496;2023-05-14T11:58:48;24.67;;;23.48;;
351;SDS011;164;50.784;6.496;2023-05-14T12:01:15;23.17;;;22.02;;
351;SDS011;164;50.784;6.496;2023-05-14T12:03:42;25.00;;;23.75;;
351;SDS011;164;50.784;6.496;2023-05-14T12:06:29;24.67;;;23.48;;
351;SDS011;164;50.784;6.496;2023-05-14T12:08:58;19.52;;;18.52;;
351;SDS011;164;50.784;6.496;2023-05-14T12:11:39;20.65;;;19.63;;
351;SDS011;164;50.784;6.496;2023-05-14T12:14:21;21.90;;;20.80;;
351;SDS011;164;50.784;6.496;2023-05-14T12:16:48;22.35;;;21.25;;
351;SDS011;164;50.784;6.496;2023-05-14T12:19:30;18.65;;;17.75;;
351;SDS011;164;50.784;6.496;2023-05-14T12:21:59;18.08;;;17.17;;
351;SDS011;164;50.784;6.496;2023-05-14T12:27:10;17.75;;;16.85;;
351;SDS011;164;50.784;6.496;2023-05-14T12:29:37;15.00;;;14.20;;
351;SDS011;164;50.784;6.496;2023-05-14T12:32:08;17.20;;;16.30;;
351;SDS011;164;50.784;6.496;2023-05-14T12:34:36;13.20;;;12.50;;
351;SDS011;164;50.784;6.496;2023-05-14T12:37:03;11.88;;;11.27;;
351;SDS011;164;50.784;6.496;2023-05-14T12:39:32;8.05;;;7.65;;
351;SDS011;164;50.784;6.496;2023-05-14T12:42:14;10.00;;;9.50;;
351;SDS011;164;50.784;6.496;2023-05-14T12:44:41;10.68;;;10.07;;
351;SDS011;164;50.784;6.496;2023-05-14T12:47:09;8.32;;;7.90;;
351;SDS011;164;50.784;6.496;2023-05-14T12:49:50;13.48;;;12.77;;
351;SDS011;164;50.784;6.496;2023-05-14T12:52:17;11.85;;;11.25;;
351;SDS011;164;50.784;6.496;2023-05-14T12:54:58;11.52;;;10.93;;
351;SDS011;164;50.784;6.496;2023-05-14T12:57:27;11.05;;;10.45;;
351;SDS011;164;50.784;6.496;2023-05-14T12:59:54;12.00;;;11.40;;
351;SDS011;164;50.784;6.496;2023-05-14T13:02:21;10.65;;;10.05;;
351;SDS011;164;50.784;6.496;2023-05-14T13:04:49;11.05;;;10.45;;
351;SDS011;164;50.784;6.496;2023-05-14T13:07:30;11.18;;;10.57;;
351;SDS011;164;50.784;6.496;2023-05-14T13:10:11;12.93;;;12.23;;
351;SDS011;164;50.784;6.496;2023-05-14T13:12:39;13.15;;;12.45;;
351;SDS011;164;50.784;6.496;2023-05-14T13:15:07;11.82;;;11.23;;
351;SDS011;164;50.784;6.496;2023-05-14T13:17:34;11.70;;;11.10;;
351;SDS011;164;50.784;6.496;2023-05-14T13:20:02;11.73;;;11.13;;
351;SDS011;164;50.784;6.496;2023-05-14T13:22:31;11.27;;;10.68;;
351;SDS011;164;50.784;6.496;2023-05-14T13:25:12;10.50;;;9.95;;
351;SDS011;164;50.784;6.496;2023-05-14T13:27:41;10.88;;;10.27;;
351;SDS011;164;50.784;6.496;2023-05-14T13:30:09;10.00;;;9.50;;
351;SDS011;164;50.784;6.496;2023-05-14T13:32:36;8.65;;;8.18;;
351;SDS011;164;50.784;6.496;2023-05-14T13:35:04;7.40;;;7.00;;
351;SDS011;164;50.784;6.496;2023-05-14T13:37:32;7.93;;;7.53;;
351;SDS011;164;50.784;6.496;2023-05-14T13:40:00;6.93;;;6.53;;
351;SDS011;164;50.784;6.496;2023-05-14T13:42:28;6.90;;;6.32;;
351;SDS011;164;50.784;6.496;2023-05-14T13:44:57;6.20;;;5.90;;
351;SDS011;164;50.784;6.496;2023-05-14T13:47:25;6.20;;;5.90;;
351;SDS011;164;50.784;6.496;2023-05-14T13:49:52;6.93;;;6.53;;
351;SDS011;164;50.784;6.496;2023-05-14T13:52:20;7.53;;;7.03;;
351;SDS011;164;50.784;6.496;2023-05-14T13:54:47;7.53;;;7.13;;
351;SDS011;164;50.784;6.496;2023-05-14T13:57:15;8.35;;;7.93;;
351;SDS011;164;50.784;6.496;2023-05-14T13:59:42;8.05;;;6.85;;
351;SDS011;164;50.784;6.496;2023-05-14T14:02:11;7.75;;;7.35;;
351;SDS011;164;50.784;6.496;2023-05-14T14:04:38;6.50;;;6.10;;
351;SDS011;164;50.784;6.496;2023-05-14T14:07:06;7.18;;;6.78;;
351;SDS011;164;50.784;6.496;2023-05-14T14:09:33;6.45;;;6.05;;
351;SDS011;164;50.784;6.496;2023-05-14T14:12:01;6.38;;;6.00;;
351;SDS011;164;50.784;6.496;2023-05-14T14:14:28;5.57;;;5.25;;
351;SDS011;164;50.784;6.496;2023-05-14T14:16:56;5.95;;;5.65;;
351;SDS011;164;50.784;6.496;2023-05-14T14:19:24;5.65;;;5.35;;
351;SDS011;164;50.784;6.496;2023-05-14T14:21:51;5.63;;;5.32;;
351;SDS011;164;50.784;6.496;2023-05-14T14:24:19;5.40;;;5.10;;
351;SDS011;164;50.784;6.496;2023-05-14T14:26:46;5.60;;;5.30;;
351;SDS011;164;50.784;6.496;2023-05-14T14:29:13;5.05;;;4.75;;
351;SDS011;164;50.784;6.496;2023-05-14T14:31:40;6.18;;;5.88;;
351;SDS011;164;50.784;6.496;2023-05-14T14:34:08;5.18;;;4.55;;
351;SDS011;164;50.784;6.496;2023-05-14T14:36:37;4.70;;;4.40;;
351;SDS011;164;50.784;6.496;2023-05-14T14:39:04;5.25;;;4.95;;
351;SDS011;164;50.784;6.496;2023-05-14T14:41:31;6.45;;;5.72;;
351;SDS011;164;50.784;6.496;2023-05-14T14:43:59;4.97;;;4.57;;
351;SDS011;164;50.784;6.496;2023-05-14T14:46:26;6.55;;;5.05;;
351;SDS011;164;50.784;6.496;2023-05-14T14:48:53;5.55;;;5.25;;
351;SDS011;164;50.784;6.496;2023-05-14T14:51:21;4.95;;;4.65;;
351;SDS011;164;50.784;6.496;2023-05-14T14:53:50;5.00;;;4.70;;
351;SDS011;164;50.784;6.496;2023-05-14T14:56:17;6.15;;;4.55;;
351;SDS011;164;50.784;6.496;2023-05-14T14:58:44;5.10;;;4.80;;
351;SDS011;164;50.784;6.496;2023-05-14T15:01:11;6.07;;;4.90;;
351;SDS011;164;50.784;6.496;2023-05-14T15:03:38;5.30;;;5.00;;
351;SDS011;164;50.784;6.496;2023-05-14T15:06:05;5.28;;;4.55;;
351;SDS011;164;50.784;6.496;2023-05-14T15:08:33;5.00;;;4.40;;
351;SDS011;164;50.784;6.496;2023-05-14T15:11:02;5.10;;;4.80;;
351;SDS011;164;50.784;6.496;2023-05-14T15:13:30;4.67;;;4.37;;
351;SDS011;164;50.784;6.496;2023-05-14T15:15:57;9.00;;;7.43;;
351;SDS011;164;50.784;6.496;2023-05-14T15:18:24;8.17;;;7.50;;
351;SDS011;164;50.784;6.496;2023-05-14T15:20:52;10.73;;;10.13;;
351;SDS011;164;50.784;6.496;2023-05-14T15:23:19;10.40;;;9.50;;
351;SDS011;164;50.784;6.496;2023-05-14T15:25:46;13.23;;;10.83;;
351;SDS011;164;50.784;6.496;2023-05-14T15:28:15;9.37;;;8.20;;
351;SDS011;164;50.784;6.496;2023-05-14T15:30:43;9.48;;;8.98;;
351;SDS011;164;50.784;6.496;2023-05-14T15:33:13;10.10;;;9.60;;
351;SDS011;164;50.784;6.496;2023-05-14T15:35:41;8.50;;;8.00;;